createdAt,value
2022-10-28T00:01:06.956Z,7.19
2022-10-28T00:03:43.549Z,7.19
2022-10-28T00:06:18.518Z,7.21
2022-10-28T00:08:45.419Z,7.17
2022-10-28T00:11:19.516Z,7.11
2022-10-28T00:13:46.996Z,7.10
2022-10-28T00:16:17.049Z,7.11
2022-10-28T00:18:43.842Z,7.06
2022-10-28T00:21:16.646Z,7.04
2022-10-28T00:23:43.938Z,7.01
2022-10-28T00:26:12.223Z,6.99
2022-10-28T00:28:56.899Z,7.03
2022-10-28T00:31:25.964Z,7.03
2022-10-28T00:33:52.835Z,7.03
2022-10-28T00:36:25.783Z,7.03
2022-10-28T00:38:54.830Z,6.99
2022-10-28T00:41:25.282Z,6.97
2022-10-28T00:43:57.741Z,7.00
2022-10-28T00:46:30.027Z,6.97
2022-10-28T00:49:05.612Z,6.98
2022-10-28T00:51:35.126Z,6.95
2022-10-28T00:54:03.926Z,6.94
2022-10-28T00:56:38.432Z,6.94
2022-10-28T00:59:10.891Z,6.95
2022-10-28T01:01:37.460Z,6.89
2022-10-28T01:04:04.268Z,6.84
2022-10-28T01:06:30.900Z,6.80
2022-10-28T01:08:59.961Z,6.79
2022-10-28T01:11:35.805Z,6.81
2022-10-28T01:14:17.949Z,6.80
2022-10-28T01:16:50.475Z,6.80
2022-10-28T01:19:35.969Z,6.80
2022-10-28T01:22:10.228Z,6.79
2022-10-28T01:24:55.546Z,6.73
2022-10-28T01:27:38.481Z,6.72
2022-10-28T01:30:07.890Z,6.76
2022-10-28T01:32:47.092Z,6.75
2022-10-28T01:35:32.852Z,6.72
2022-10-28T01:38:19.036Z,6.68
2022-10-28T01:41:11.267Z,6.65
2022-10-28T01:43:45.727Z,6.65
2022-10-28T01:46:27.825Z,6.59
2022-10-28T01:49:02.325Z,6.57
2022-10-28T01:51:35.021Z,6.55
2022-10-28T01:54:04.969Z,6.56
2022-10-28T01:56:36.874Z,6.59
2022-10-28T01:59:07.289Z,6.60
2022-10-28T02:01:34.121Z,6.62
2022-10-28T02:04:01.449Z,6.59
2022-10-28T02:06:30.437Z,6.58
2022-10-28T02:09:24.302Z,6.55
2022-10-28T02:12:12.582Z,6.53
2022-10-28T02:14:56.185Z,6.48
2022-10-28T02:17:41.394Z,6.49
2022-10-28T02:20:37.545Z,6.48
2022-10-28T02:23:27.140Z,6.44
2022-10-28T02:26:14.984Z,6.41
2022-10-28T02:29:04.062Z,6.34
2022-10-28T02:31:42.443Z,6.27
2022-10-28T02:34:18.144Z,6.28
2022-10-28T02:36:49.582Z,6.30
2022-10-28T02:39:20.904Z,6.34
2022-10-28T02:41:52.901Z,6.26
2022-10-28T02:44:26.148Z,6.24
2022-10-28T02:46:55.204Z,6.25
2022-10-28T02:49:23.648Z,6.25
2022-10-28T02:51:57.914Z,6.25
2022-10-28T02:54:32.216Z,6.27
2022-10-28T02:57:04.216Z,6.23
2022-10-28T02:59:30.996Z,6.22
2022-10-28T03:01:57.745Z,6.20
2022-10-28T03:04:24.537Z,6.22
2022-10-28T03:06:51.166Z,6.22
2022-10-28T03:09:17.745Z,6.22
2022-10-28T03:11:44.607Z,6.18
2022-10-28T03:14:13.289Z,6.14
2022-10-28T03:16:42.134Z,6.10
2022-10-28T03:21:40.229Z,5.96
2022-10-28T03:24:06.792Z,5.93
2022-10-28T03:26:33.494Z,5.89
2022-10-28T03:29:00.100Z,5.91
2022-10-28T03:31:26.810Z,5.93
2022-10-28T03:33:53.425Z,5.95
2022-10-28T03:36:19.962Z,5.95
2022-10-28T03:38:46.465Z,5.96
2022-10-28T03:41:13.032Z,6.01
2022-10-28T03:43:39.596Z,6.06
2022-10-28T03:46:06.370Z,6.02
2022-10-28T03:48:32.990Z,5.95
2022-10-28T03:50:59.598Z,5.88
2022-10-28T03:53:29.057Z,5.79
2022-10-28T03:56:00.071Z,5.73
2022-10-28T03:58:26.891Z,5.65
2022-10-28T04:00:54.555Z,5.66
2022-10-28T04:03:22.746Z,5.71
2022-10-28T04:05:49.643Z,5.79
2022-10-28T04:08:17.445Z,5.90
2022-10-28T04:10:47.344Z,5.98
2022-10-28T04:13:15.475Z,6.01
2022-10-28T04:15:42.525Z,6.01
2022-10-28T04:18:09.357Z,6.01
2022-10-28T04:20:36.534Z,6.04
2022-10-28T04:23:03.858Z,6.04
2022-10-28T04:25:30.683Z,5.98
2022-10-28T04:27:57.405Z,5.93
2022-10-28T04:30:24.005Z,5.92
2022-10-28T04:32:50.681Z,5.94
2022-10-28T04:35:17.502Z,5.93
2022-10-28T04:37:44.091Z,5.90
2022-10-28T04:40:11.153Z,5.93
2022-10-28T04:42:38.049Z,5.93
2022-10-28T04:45:05.194Z,5.95
2022-10-28T04:47:31.790Z,5.97
2022-10-28T04:49:58.434Z,5.97
2022-10-28T04:52:25.068Z,5.97
2022-10-28T04:54:51.660Z,5.99
2022-10-28T04:57:18.142Z,6.01
2022-10-28T04:59:46.077Z,6.04
2022-10-28T05:02:12.986Z,6.04
2022-10-28T05:04:39.725Z,6.06
2022-10-28T05:07:06.740Z,6.04
2022-10-28T05:09:33.405Z,6.07
2022-10-28T05:12:00.238Z,6.09
2022-10-28T05:14:26.813Z,6.14
2022-10-28T05:16:53.392Z,6.14
2022-10-28T05:19:19.920Z,6.14
2022-10-28T05:21:46.582Z,6.12
2022-10-28T05:24:13.067Z,6.11
2022-10-28T05:26:39.698Z,6.13
2022-10-28T05:29:06.330Z,6.13
2022-10-28T05:31:32.904Z,6.10
2022-10-28T05:33:59.577Z,6.09
2022-10-28T05:36:26.326Z,6.17
2022-10-28T05:38:53.049Z,6.25
2022-10-28T05:41:19.743Z,6.33
2022-10-28T05:43:46.650Z,6.46
2022-10-28T05:46:13.480Z,6.57
2022-10-28T05:48:40.116Z,6.68
2022-10-28T05:51:06.734Z,6.77
2022-10-28T05:53:33.404Z,6.85
2022-10-28T05:56:00.013Z,6.91
2022-10-28T05:58:26.650Z,7.01
2022-10-28T06:00:53.531Z,7.11
2022-10-28T06:03:20.283Z,7.16
2022-10-28T06:05:46.945Z,7.28
2022-10-28T06:08:14.128Z,7.37
2022-10-28T06:10:41.470Z,7.50
2022-10-28T06:13:07.562Z,7.61
2022-10-28T06:15:34.258Z,7.70
2022-10-28T06:18:00.867Z,7.71
2022-10-28T06:20:27.554Z,7.82
2022-10-28T06:22:55.545Z,7.91
2022-10-28T06:25:24.041Z,8.03
2022-10-28T06:27:55.901Z,8.20
2022-10-28T06:30:24.892Z,8.38
2022-10-28T06:32:55.065Z,8.53
2022-10-28T06:35:22.134Z,8.69
2022-10-28T06:37:55.856Z,8.85
2022-10-28T06:40:24.347Z,9.00
2022-10-28T06:42:56.955Z,9.10
2022-10-28T06:45:24.011Z,9.25
2022-10-28T06:47:59.720Z,9.38
2022-10-28T06:50:30.344Z,9.50
2022-10-28T06:52:57.995Z,9.64
2022-10-28T06:55:25.734Z,9.81
2022-10-28T06:57:53.689Z,9.99
2022-10-28T07:00:21.183Z,10.13
2022-10-28T07:02:53.415Z,10.30
2022-10-28T07:05:20.824Z,10.45
2022-10-28T07:07:47.780Z,10.62
2022-10-28T07:10:14.755Z,10.80
2022-10-28T07:12:41.658Z,10.96
2022-10-28T07:15:09.809Z,11.15
2022-10-28T07:17:36.555Z,11.35
2022-10-28T07:20:04.000Z,11.53
2022-10-28T07:22:30.955Z,11.69
2022-10-28T07:24:57.790Z,11.85
2022-10-28T07:27:25.379Z,12.02
2022-10-28T07:29:52.167Z,12.16
2022-10-28T07:32:19.124Z,12.35
2022-10-28T07:34:46.619Z,12.50
2022-10-28T07:37:13.509Z,12.70
2022-10-28T07:39:40.217Z,12.88
2022-10-28T07:42:07.006Z,13.01
2022-10-28T07:44:33.763Z,13.07
2022-10-28T07:47:00.379Z,13.16
2022-10-28T07:49:27.366Z,13.28
2022-10-28T07:51:54.254Z,13.43
2022-10-28T07:54:21.046Z,13.54
2022-10-28T07:56:47.757Z,13.67
2022-10-28T07:59:15.534Z,13.81
2022-10-28T08:01:43.813Z,13.86
2022-10-28T08:04:10.533Z,13.94
2022-10-28T08:06:38.649Z,14.05
2022-10-28T08:09:05.654Z,14.18
2022-10-28T08:11:32.799Z,14.28
2022-10-28T08:14:01.710Z,14.36
2022-10-28T08:16:28.507Z,14.46
2022-10-28T08:18:56.249Z,14.55
2022-10-28T08:21:23.878Z,14.60
2022-10-28T08:23:51.252Z,14.69
2022-10-28T08:26:17.907Z,14.76
2022-10-28T08:28:44.716Z,14.86
2022-10-28T08:31:14.251Z,14.95
2022-10-28T08:33:46.398Z,15.01
2022-10-28T08:36:15.757Z,15.13
2022-10-28T08:38:45.806Z,15.26
2022-10-28T08:41:32.320Z,15.37
2022-10-28T08:44:32.800Z,15.52
2022-10-28T08:47:11.850Z,15.67
2022-10-28T08:49:43.385Z,15.82
2022-10-28T08:52:21.316Z,15.92
2022-10-28T08:54:57.275Z,16.01
2022-10-28T08:57:46.699Z,16.06
2022-10-28T09:00:30.871Z,16.09
2022-10-28T09:03:03.510Z,16.16
2022-10-28T09:05:30.286Z,16.23
2022-10-28T09:07:57.765Z,16.27
2022-10-28T09:10:41.141Z,16.31
2022-10-28T09:13:23.398Z,16.35
2022-10-28T09:16:05.374Z,16.40
2022-10-28T09:18:53.782Z,16.45
2022-10-28T09:21:33.730Z,16.48
2022-10-28T09:24:13.627Z,16.45
2022-10-28T09:27:06.210Z,16.41
2022-10-28T09:29:44.237Z,16.50
2022-10-28T09:32:14.064Z,16.56
2022-10-28T09:34:49.058Z,16.61
2022-10-28T09:37:27.523Z,16.65
2022-10-28T09:40:04.493Z,16.68
2022-10-28T09:45:39.231Z,16.76
2022-10-28T09:48:16.650Z,16.91
2022-10-28T09:50:44.135Z,16.99
2022-10-28T09:53:14.589Z,17.00
2022-10-28T09:55:41.435Z,16.98
2022-10-28T09:58:12.217Z,17.07
2022-10-28T10:00:39.387Z,17.19
2022-10-28T10:03:06.503Z,17.28
2022-10-28T10:05:40.438Z,17.33
2022-10-28T10:08:13.631Z,17.36
2022-10-28T10:11:00.470Z,17.34
2022-10-28T10:13:32.863Z,17.34
2022-10-28T10:16:04.754Z,17.22
2022-10-28T10:18:32.490Z,17.37
2022-10-28T10:20:59.517Z,17.53
2022-10-28T10:23:30.886Z,17.68
2022-10-28T10:26:08.031Z,17.74
2022-10-28T10:28:48.895Z,17.85
2022-10-28T10:31:21.784Z,17.89
2022-10-28T10:33:54.451Z,17.96
2022-10-28T10:36:27.655Z,18.02
2022-10-28T10:39:00.020Z,17.97
2022-10-28T10:41:41.880Z,17.98
2022-10-28T10:44:20.873Z,17.93
2022-10-28T10:47:03.478Z,17.89
2022-10-28T10:49:34.691Z,17.89
2022-10-28T10:52:09.174Z,17.90
2022-10-28T10:54:36.945Z,17.89
2022-10-28T10:57:09.006Z,17.91
2022-10-28T10:59:37.244Z,17.89
2022-10-28T11:02:20.857Z,17.86
2022-10-28T11:04:54.928Z,17.92
2022-10-28T11:07:22.243Z,17.98
2022-10-28T11:09:50.778Z,18.05
2022-10-28T11:12:38.261Z,18.08
2022-10-28T11:15:26.306Z,18.16
2022-10-28T11:17:56.179Z,18.18
2022-10-28T11:20:27.974Z,18.14
2022-10-28T11:23:12.307Z,18.20
2022-10-28T11:25:44.862Z,18.30
2022-10-28T11:28:50.144Z,18.37
2022-10-28T11:31:19.512Z,18.32
2022-10-28T11:34:01.002Z,18.32
2022-10-28T11:36:42.105Z,18.29
2022-10-28T11:39:33.844Z,18.30
2022-10-28T11:42:15.776Z,18.31
2022-10-28T11:44:54.235Z,18.31
2022-10-28T11:47:36.581Z,18.27
2022-10-28T11:50:41.679Z,18.03
2022-10-28T11:53:29.439Z,18.11
2022-10-28T11:56:28.938Z,17.87
2022-10-28T11:59:12.809Z,17.95
2022-10-28T12:01:57.674Z,17.98
2022-10-28T12:04:42.997Z,18.01
2022-10-28T12:07:34.724Z,18.09
2022-10-28T12:10:22.040Z,18.13
2022-10-28T12:13:02.856Z,18.10
2022-10-28T12:15:50.380Z,18.11
2022-10-28T12:18:35.412Z,18.08
2022-10-28T12:21:22.551Z,18.11
2022-10-28T12:23:51.062Z,18.21
2022-10-28T12:26:20.702Z,18.26
2022-10-28T12:29:00.628Z,18.23
2022-10-28T12:31:39.748Z,18.12
2022-10-28T12:34:13.777Z,18.10
2022-10-28T12:36:47.708Z,18.18
2022-10-28T12:39:20.427Z,18.25
2022-10-28T12:42:00.782Z,18.21
2022-10-28T12:44:28.831Z,18.27
2022-10-28T12:47:04.610Z,18.26
2022-10-28T12:49:44.459Z,18.26
2022-10-28T12:52:36.161Z,18.25
2022-10-28T12:55:17.731Z,18.26
2022-10-28T12:57:50.423Z,18.28
2022-10-28T13:00:44.817Z,18.19
2022-10-28T13:03:13.915Z,18.18
2022-10-28T13:05:40.709Z,18.19
2022-10-28T13:08:27.013Z,18.14
2022-10-28T13:11:27.579Z,17.97
2022-10-28T13:14:02.956Z,17.83
2022-10-28T13:16:52.440Z,17.88
2022-10-28T13:19:43.664Z,17.91
2022-10-28T13:22:20.750Z,17.92
2022-10-28T13:25:06.033Z,17.87
2022-10-28T13:27:33.206Z,17.75
2022-10-28T13:30:02.996Z,17.75
2022-10-28T13:32:38.625Z,17.77
2022-10-28T13:35:20.730Z,17.76
2022-10-28T13:37:49.736Z,17.74
2022-10-28T13:40:31.738Z,17.74
2022-10-28T13:43:00.859Z,17.75
2022-10-28T13:45:49.333Z,17.64
2022-10-28T13:48:42.094Z,17.58
2022-10-28T13:51:09.323Z,17.60
2022-10-28T13:53:44.823Z,17.63
2022-10-28T13:56:21.214Z,17.61
2022-10-28T13:58:52.458Z,17.61
2022-10-28T14:01:52.754Z,17.44
2022-10-28T14:04:34.076Z,17.37
2022-10-28T14:07:22.886Z,17.29
2022-10-28T14:09:54.870Z,17.26
2022-10-28T14:12:26.818Z,17.23
2022-10-28T14:14:59.054Z,17.25
2022-10-28T14:18:09.923Z,17.17
2022-10-28T14:20:58.326Z,17.19
2022-10-28T14:23:27.928Z,17.04
2022-10-28T14:25:55.386Z,16.92
2022-10-28T14:28:28.384Z,16.87
2022-10-28T14:31:13.992Z,16.82
2022-10-28T14:33:43.783Z,16.73
2022-10-28T14:36:19.219Z,16.71
2022-10-28T14:39:23.996Z,16.65
2022-10-28T14:41:59.927Z,16.57
2022-10-28T14:44:32.552Z,16.52
2022-10-28T14:47:38.194Z,16.44
2022-10-28T14:50:16.215Z,16.36
2022-10-28T14:52:46.015Z,16.30
2022-10-28T14:55:23.505Z,16.23
2022-10-28T14:57:50.149Z,16.19
2022-10-28T15:00:25.269Z,16.11
2022-10-28T15:02:51.971Z,15.98
2022-10-28T15:05:20.994Z,15.88
2022-10-28T15:07:48.048Z,15.75
2022-10-28T15:10:22.549Z,15.66
2022-10-28T15:12:49.854Z,15.60
2022-10-28T15:15:24.985Z,15.51
2022-10-28T15:17:52.355Z,15.40
2022-10-28T15:20:31.633Z,15.30
2022-10-28T15:23:21.913Z,15.19
2022-10-28T15:26:15.914Z,15.05
2022-10-28T15:28:43.044Z,14.90
2022-10-28T15:31:09.660Z,14.75
2022-10-28T15:33:37.893Z,14.61
2022-10-28T15:36:23.232Z,14.46
2022-10-28T15:38:58.316Z,14.29
2022-10-28T15:41:24.925Z,14.18
2022-10-28T15:43:58.250Z,14.08
2022-10-28T15:46:25.622Z,13.98
2022-10-28T15:48:56.514Z,13.92
2022-10-28T15:51:23.994Z,13.86
2022-10-28T15:53:53.432Z,13.78
2022-10-28T15:56:25.365Z,13.71
2022-10-28T15:58:58.209Z,13.61
2022-10-28T16:01:40.890Z,13.53
2022-10-28T16:04:22.887Z,13.43
2022-10-28T16:06:53.476Z,13.27
2022-10-28T16:09:27.673Z,13.04
2022-10-28T16:11:58.253Z,12.87
2022-10-28T16:14:38.376Z,12.76
2022-10-28T16:17:17.703Z,12.59
2022-10-28T16:19:48.783Z,12.53
2022-10-28T16:22:17.722Z,12.42
2022-10-28T16:24:45.105Z,12.30
2022-10-28T16:27:19.770Z,12.18
2022-10-28T16:29:46.878Z,12.08
2022-10-28T16:32:15.619Z,12.01
2022-10-28T16:34:42.108Z,11.92
2022-10-28T16:37:20.335Z,11.86
2022-10-28T16:39:46.934Z,11.77
2022-10-28T16:42:14.519Z,11.69
2022-10-28T16:44:41.134Z,11.61
2022-10-28T16:47:12.966Z,11.47
2022-10-28T16:49:40.248Z,11.38
2022-10-28T16:52:13.955Z,11.27
2022-10-28T16:54:40.468Z,11.16
2022-10-28T16:57:07.006Z,11.11
2022-10-28T16:59:33.650Z,11.05
2022-10-28T17:02:00.279Z,10.99
2022-10-28T17:04:26.992Z,10.95
2022-10-28T17:06:53.581Z,10.89
2022-10-28T17:09:20.139Z,10.79
2022-10-28T17:11:46.750Z,10.76
2022-10-28T17:14:13.368Z,10.61
2022-10-28T17:16:42.416Z,10.52
2022-10-28T17:19:10.167Z,10.45
2022-10-28T17:21:36.958Z,10.40
2022-10-28T17:24:03.859Z,10.37
2022-10-28T17:26:30.671Z,10.33
2022-10-28T17:28:57.218Z,10.22
2022-10-28T17:31:25.437Z,10.20
2022-10-28T17:33:54.232Z,10.15
2022-10-28T17:36:22.508Z,10.12
2022-10-28T17:38:49.205Z,10.03
2022-10-28T17:41:15.736Z,9.96
2022-10-28T17:43:42.440Z,9.87
2022-10-28T17:46:09.228Z,9.81
2022-10-28T17:48:35.882Z,9.71
2022-10-28T17:51:02.479Z,9.60
2022-10-28T17:53:29.063Z,9.52
2022-10-28T17:56:03.018Z,9.45
2022-10-28T17:58:30.588Z,9.42
2022-10-28T18:01:01.669Z,9.38
2022-10-28T18:03:32.769Z,9.37
2022-10-28T18:06:02.969Z,9.34
2022-10-28T18:08:37.796Z,9.31
2022-10-28T18:11:05.899Z,9.34
2022-10-28T18:13:35.134Z,9.33
2022-10-28T18:16:09.877Z,9.34
2022-10-28T18:18:41.072Z,9.29
2022-10-28T18:21:10.875Z,9.22
2022-10-28T18:23:38.060Z,9.12
2022-10-28T18:26:12.831Z,9.10
2022-10-28T18:28:41.493Z,9.06
2022-10-28T18:31:19.213Z,9.06
2022-10-28T18:33:46.617Z,9.08
2022-10-28T18:36:16.650Z,9.07
2022-10-28T18:38:43.234Z,9.04
2022-10-28T18:41:11.803Z,8.99
2022-10-28T18:43:39.131Z,8.91
2022-10-28T18:46:05.976Z,8.85
2022-10-28T18:48:32.647Z,8.85
2022-10-28T18:51:01.676Z,8.85
2022-10-28T18:53:28.261Z,8.80
2022-10-28T18:56:01.343Z,8.75
2022-10-28T18:58:28.284Z,8.73
2022-10-28T19:01:06.820Z,8.67
2022-10-28T19:03:33.797Z,8.64
2022-10-28T19:06:05.282Z,8.64
2022-10-28T19:08:31.848Z,8.64
2022-10-28T19:10:59.815Z,8.62
2022-10-28T19:13:26.798Z,8.60
2022-10-28T19:15:53.644Z,8.53
2022-10-28T19:18:20.204Z,8.56
2022-10-28T19:20:46.855Z,8.58
2022-10-28T19:23:13.698Z,8.60
2022-10-28T19:25:40.371Z,8.59
2022-10-28T19:28:07.004Z,8.59
2022-10-28T19:30:34.290Z,8.56
2022-10-28T19:33:00.992Z,8.55
2022-10-28T19:35:27.571Z,8.51
2022-10-28T19:37:54.285Z,8.48
2022-10-28T19:40:20.824Z,8.48
2022-10-28T19:42:47.377Z,8.50
2022-10-28T19:45:14.328Z,8.53
2022-10-28T19:47:40.879Z,8.55
2022-10-28T19:50:08.109Z,8.57
2022-10-28T19:52:34.648Z,8.59
2022-10-28T19:55:01.324Z,8.58
2022-10-28T19:57:27.879Z,8.54
2022-10-28T19:59:54.708Z,8.47
2022-10-28T20:02:21.359Z,8.43
2022-10-28T20:04:52.653Z,8.37
2022-10-28T20:07:19.508Z,8.25
2022-10-28T20:09:46.047Z,8.25
2022-10-28T20:12:12.720Z,8.29
2022-10-28T20:14:39.320Z,8.31
2022-10-28T20:17:06.907Z,8.30
2022-10-28T20:19:33.497Z,8.30
2022-10-28T20:22:00.020Z,8.28
2022-10-28T20:24:26.679Z,8.27
2022-10-28T20:26:53.276Z,8.28
2022-10-28T20:29:19.839Z,8.28
2022-10-28T20:31:46.346Z,8.32
2022-10-28T20:34:12.906Z,8.33
2022-10-28T20:36:43.476Z,8.33
2022-10-28T20:39:15.644Z,8.30
2022-10-28T20:41:44.553Z,8.32
2022-10-28T20:44:11.915Z,8.33
2022-10-28T20:46:39.101Z,8.31
2022-10-28T20:49:07.907Z,8.27
2022-10-28T20:51:35.492Z,8.27
2022-10-28T20:54:02.431Z,8.27
2022-10-28T20:56:31.338Z,8.25
2022-10-28T20:58:57.834Z,8.23
2022-10-28T21:01:30.322Z,8.23
2022-10-28T21:04:00.431Z,8.18
2022-10-28T21:06:28.212Z,8.12
2022-10-28T21:08:55.964Z,8.09
2022-10-28T21:11:23.863Z,8.07
2022-10-28T21:13:55.799Z,8.06
2022-10-28T21:16:23.288Z,8.07
2022-10-28T21:18:50.750Z,7.99
2022-10-28T21:21:18.775Z,7.93
2022-10-28T21:23:45.418Z,7.87
2022-10-28T21:26:12.657Z,7.89
2022-10-28T21:28:42.717Z,7.87
2022-10-28T21:31:11.910Z,7.87
2022-10-28T21:33:39.046Z,7.90
2022-10-28T21:36:09.203Z,7.89
2022-10-28T21:38:36.033Z,7.89
2022-10-28T21:41:02.640Z,7.91
2022-10-28T21:43:31.632Z,7.90
2022-10-28T21:45:58.434Z,7.88
2022-10-28T21:48:26.793Z,7.88
2022-10-28T21:50:55.623Z,7.86
2022-10-28T21:53:22.335Z,7.82
2022-10-28T21:55:50.936Z,7.81
2022-10-28T21:58:18.738Z,7.79
2022-10-28T22:00:45.774Z,7.72
2022-10-28T22:03:13.149Z,7.71
2022-10-28T22:05:48.529Z,7.67
2022-10-28T22:08:15.948Z,7.65
2022-10-28T22:10:42.497Z,7.64
2022-10-28T22:13:09.107Z,7.60
2022-10-28T22:15:35.664Z,7.59
2022-10-28T22:18:02.284Z,7.59
2022-10-28T22:20:29.417Z,7.56
2022-10-28T22:22:56.258Z,7.59
2022-10-28T22:25:23.178Z,7.59
2022-10-28T22:27:49.743Z,7.58
2022-10-28T22:30:16.222Z,7.58
2022-10-28T22:32:42.724Z,7.52
2022-10-28T22:35:09.212Z,7.51
2022-10-28T22:37:35.783Z,7.47
2022-10-28T22:40:02.353Z,7.47
2022-10-28T22:42:28.998Z,7.43
2022-10-28T22:44:55.581Z,7.39
2022-10-28T22:47:22.165Z,7.33
2022-10-28T22:49:48.692Z,7.30
2022-10-28T22:52:15.219Z,7.28
2022-10-28T22:54:41.882Z,7.25
2022-10-28T22:57:09.308Z,7.21
2022-10-28T22:59:35.902Z,7.21
2022-10-28T23:02:02.502Z,7.23
2022-10-28T23:04:29.150Z,7.25
2022-10-28T23:06:55.857Z,7.30
2022-10-28T23:09:22.401Z,7.33
2022-10-28T23:11:50.533Z,7.35
2022-10-28T23:14:17.042Z,7.35
2022-10-28T23:16:43.594Z,7.35
2022-10-28T23:19:10.185Z,7.37
2022-10-28T23:21:36.737Z,7.39
2022-10-28T23:24:03.394Z,7.41
2022-10-28T23:26:30.559Z,7.41
2022-10-28T23:28:58.798Z,7.43
2022-10-28T23:31:26.380Z,7.42
2022-10-28T23:33:54.260Z,7.43
2022-10-28T23:36:21.452Z,7.40
2022-10-28T23:38:48.117Z,7.38
2022-10-28T23:41:17.555Z,7.33
2022-10-28T23:43:44.344Z,7.30
2022-10-28T23:46:11.623Z,7.27
2022-10-28T23:48:38.358Z,7.26
2022-10-28T23:51:06.072Z,7.22
2022-10-28T23:53:32.852Z,7.22
2022-10-28T23:55:59.490Z,7.21
2022-10-28T23:58:26.326Z,7.16
